St Louis Regional Airport
KALN : now visible

Airfield :











YOU CAN JOIN US ON...

 
LOGIN :

Register | Disclaimer

   EN    FR    IT 

 









Legend :    VFR   Marginal VFR   IFR   Intensive IFR   Very Intensive IFR
Visi :
Ceiling :
>= 8 km
>= 3000ft
5 to 8 km
1000 to 3000 ft
1500m to 5 km
500 to 1000 ft
800 to 1500m
200 to 500 ft
< 800m
< 200 ft
Symbols :   Thunderstorms  Fog  Heavy snow  Heavy precipitations  Wind > 20 kt






- Airport Elevation : 544 ft


KALN - St Louis Regional

CURRENT METAR :
  • 250315Z AUTO 10009KT 10SM SCT033 SCT040 OVC050 21/17 A2993 RMK AO2 T02050165

EXPIRED METARs :
  • 250250Z 11009KT 10SM BKN033 OVC060 20/16 A2993
  • 250150Z 11007KT 10SM SCT060 20/16 A2992
  • 250050Z 09010KT 10SM OVC080 21/16 A2992

TAF N/A
KZKC FIR / North America



MET'MAP, your aeronautical weather chart ! - Copyright ORBIFLY December 2007 - Disclaimer

ORBIFLY MET'MAP TEAM :

Programming & Development : Alexandra Zaïnal
Original concept : Baudouin d'Aumeries
Technical & hardware support : Manuel Goepfert
Assistance : Marc-Olivier Méhu

Contact : metmap@orbifly.com




SOURCES & CREDITS :

   NOAA       Earth
Advisory